1871 NOT_NAMED (1871021S09087)


IBTrACS version v04r00. Visit IBTrACS website for data access.
Please direct all questions to the IBTrACS Q and A forum

Storm track - Intensity - Wind Radii - Intensity Data - Source Data - All data

Summary Information

Storm ID 1871021S09087
Start Jan 21 06Z
End Jan 28 06Z
ATCF IDs
Track status Best track data.

Storm track plot

Map of storm track

Intensity plots

No Intensity information for this storm


Radial wind information

No radial wind information for this storm


Position and Intensity Table

BASIN ISO_TIME_________ NATURE LAT LON
degrees north degrees east
SI 1871-01-21 06:00:00 NR -8.70 87.00
SI 09:00:00 NR -8.76 86.91
SI 12:00:00 NR -8.82 86.82
SI 15:00:00 NR -8.89 86.73
SI 18:00:00 NR -8.96 86.62
SI 21:00:00 NR -9.05 86.51
SI 1871-01-22 00:00:00 NR -9.24 86.35
SI 03:00:00 NR -9.42 86.17
SI 06:00:00 NR -9.61 85.97
SI 09:00:00 NR -9.80 85.76
SI 12:00:00 NR -9.96 85.57
SI 15:00:00 NR -10.15 85.37
SI 18:00:00 NR -10.34 85.17
SI 21:00:00 NR -10.52 84.96
SI 1871-01-23 00:00:00 NR -10.71 84.76
SI 03:00:00 NR -10.87 84.55
SI 06:00:00 NR -11.03 84.34
SI 09:00:00 NR -11.17 84.14
SI 12:00:00 NR -11.32 83.96
SI 15:00:00 NR -11.47 83.79
SI 18:00:00 NR -11.63 83.64
SI 21:00:00 NR -11.78 83.50
SI 1871-01-24 00:00:00 NR -11.92 83.36
SI 03:00:00 NR -12.04 83.22
SI 06:00:00 NR -12.15 83.08
SI 09:00:00 NR -12.26 82.95
SI 12:00:00 NR -12.37 82.81
SI 15:00:00 NR -12.48 82.68
SI 18:00:00 NR -12.60 82.55
SI 21:00:00 NR -12.72 82.41
SI 1871-01-25 00:00:00 NR -12.84 82.27
SI 03:00:00 NR -12.95 82.14
SI 06:00:00 NR -13.07 82.00
SI 09:00:00 NR -13.19 81.86
SI 12:00:00 NR -13.31 81.72
SI 15:00:00 NR -13.44 81.58
SI 18:00:00 NR -13.57 81.44
SI 21:00:00 NR -13.72 81.29
SI 1871-01-26 00:00:00 NR -13.88 81.13
SI 03:00:00 NR -14.06 80.96
SI 06:00:00 NR -14.26 80.77
SI 09:00:00 NR -14.48 80.56
SI 12:00:00 NR -14.72 80.33
SI 15:00:00 NR -14.96 80.08
SI 18:00:00 NR -15.19 79.84
SI 21:00:00 NR -15.40 79.60
SI 1871-01-27 00:00:00 NR -15.60 79.39
SI 03:00:00 NR -15.77 79.22
SI 06:00:00 NR -16.00 79.00
SI 09:00:00 NR -16.21 78.79
SI 12:00:00 NR -16.41 78.61
SI 15:00:00 NR -16.60 78.43
SI 18:00:00 NR -16.77 78.27
SI 21:00:00 NR -16.93 78.12
SI 1871-01-28 00:00:00 NR -17.09 77.98
SI 03:00:00 NR -17.25 77.84
SI 06:00:00 NR -17.40 77.70

Source Information

Agency Information
USA
TOKYO
CMA
HKO
NEWDELHI
REUNION WMO-Best-Tracks.txt:Line=868:xxxx871127
BOM
NADI
WELLINGTON
DS824
TD9636 cons_worldwide_trop_cyclone_18710101-19891231-005:Line=1168
TD9635
NEUMANN
MLC

All available IBTrACS Data

SEASON BASIN SUBBASIN ISO_TIME_________ NATURE LAT LON WMO AGENCY DIST2LAND LANDFALL IFLAG USA SSHS REUNION LAT REUNION LON REUNION TYPE REUNION TNUM TD9636 LAT TD9636 LON TD9636 STAGE STORM SPEED STORM DIR
Year degrees north degrees east km km 1 degrees north degrees east 1 degrees north degrees east kts degrees
1871 SI MM 1871-01-21 06:00:00 NR -8.70 87.00 1533 1533 _____O________ -1 -8.70 87.00 99 9.90 2 236
1871 SI MM 09:00:00 NR -8.76 86.91 1549 1549 _____P________ -1 -8.76 86.91 99 2 236
1871 SI MM 12:00:00 NR -8.82 86.82 1558 1558 _____P________ -1 -8.82 86.82 99 2 235
1871 SI MM 15:00:00 NR -8.89 86.73 1573 1573 _____P________ -1 -8.89 86.73 99 2 234
1871 SI MM 18:00:00 NR -8.96 86.62 1588 1588 _____P________ -1 -8.96 86.62 99 3 233
1871 SI MM 21:00:00 NR -9.05 86.51 1598 1598 _____P________ -1 -9.05 86.51 99 4 224
1871 SI MM 1871-01-22 00:00:00 NR -9.24 86.35 1619 1619 _____P____O___ -1 -9.15 86.39 99 -9.60 86.20 7 5 222
1871 SI MM 03:00:00 NR -9.42 86.17 1649 1649 _____P____P___ -1 -9.26 86.25 99 -9.74 86.00 7 5 225
1871 SI MM 06:00:00 NR -9.61 85.97 1679 1679 _____O____P___ -1 -9.40 86.10 99 9.90 -9.89 85.80 7 5 227
1871 SI MM 09:00:00 NR -9.80 85.76 1710 1710 _____P____P___ -1 -9.56 85.93 99 -10.04 85.60 7 5 228
1871 SI MM 12:00:00 NR -9.96 85.57 1740 1740 _____P____O___ -1 -9.73 85.74 99 -10.20 85.40 7 5 228
1871 SI MM 15:00:00 NR -10.15 85.37 1765 1765 _____P____P___ -1 -9.92 85.54 99 -10.38 85.20 7 5 227
1871 SI MM 18:00:00 NR -10.34 85.17 1795 1795 _____P____P___ -1 -10.11 85.34 99 -10.56 85.00 7 6 227
1871 SI MM 21:00:00 NR -10.52 84.96 1825 1825 _____P____P___ -1 -10.31 85.13 99 -10.74 84.80 7 6 227
1871 SI MM 1871-01-23 00:00:00 NR -10.71 84.76 1856 1856 _____P____O___ -1 -10.51 84.91 99 -10.90 84.60 7 5 230
1871 SI MM 03:00:00 NR -10.87 84.55 1895 1895 _____P____P___ -1 -10.71 84.70 99 -11.04 84.39 7 5 232
1871 SI MM 06:00:00 NR -11.03 84.34 1920 1920 _____O____P___ -1 -10.90 84.50 99 9.90 -11.16 84.18 7 5 233
1871 SI MM 09:00:00 NR -11.17 84.14 1950 1950 _____P____P___ -1 -11.07 84.31 99 -11.28 83.98 7 5 232
1871 SI MM 12:00:00 NR -11.32 83.96 1963 1961 _____P____O___ -1 -11.23 84.12 99 -11.40 83.80 7 5 229
1871 SI MM 15:00:00 NR -11.47 83.79 1981 1979 _____P____P___ -1 -11.39 83.93 99 -11.55 83.65 7 4 225
1871 SI MM 18:00:00 NR -11.63 83.64 1988 1988 _____P____P___ -1 -11.54 83.75 99 -11.71 83.53 7 4 224
1871 SI MM 21:00:00 NR -11.78 83.50 2009 2007 _____P____P___ -1 -11.69 83.58 99 -11.86 83.41 7 4 224
1871 SI MM 1871-01-24 00:00:00 NR -11.92 83.36 2018 2016 _____P____O___ -1 -11.83 83.41 99 -12.00 83.30 7 4 226
1871 SI MM 03:00:00 NR -12.04 83.22 2026 2026 _____P____P___ -1 -11.97 83.25 99 -12.11 83.18 7 4 229
1871 SI MM 06:00:00 NR -12.15 83.08 2046 2045 _____O____P___ -1 -12.10 83.10 99 9.90 -12.21 83.06 7 3 230
1871 SI MM 09:00:00 NR -12.26 82.95 2054 2053 _____P____P___ -1 -12.22 82.96 99 -12.30 82.93 7 3 230
1871 SI MM 12:00:00 NR -12.37 82.81 2064 2063 _____P____O___ -1 -12.34 82.83 99 -12.40 82.80 7 3 229
1871 SI MM 15:00:00 NR -12.48 82.68 2074 2073 _____P____P___ -1 -12.45 82.70 99 -12.52 82.66 7 4 229
1871 SI MM 18:00:00 NR -12.60 82.55 2083 2083 _____P____P___ -1 -12.56 82.58 99 -12.64 82.51 7 4 229
1871 SI MM 21:00:00 NR -12.72 82.41 2093 2093 _____P____P___ -1 -12.66 82.47 99 -12.77 82.35 7 4 228
1871 SI MM 1871-01-25 00:00:00 NR -12.84 82.27 2103 2103 _____P____O___ -1 -12.77 82.35 99 -12.90 82.20 7 4 228
1871 SI MM 03:00:00 NR -12.95 82.14 2124 2123 _____P____P___ -1 -12.88 82.23 99 -13.02 82.05 7 4 229
1871 SI MM 06:00:00 NR -13.07 82.00 2134 2133 _____O____P___ -1 -13.00 82.10 99 9.90 -13.14 81.90 7 4 229
1871 SI MM 09:00:00 NR -13.19 81.86 2144 2144 _____P____P___ -1 -13.11 81.97 99 -13.27 81.75 7 4 228
1871 SI MM 12:00:00 NR -13.31 81.72 2154 2154 _____P____O___ -1 -13.23 81.84 99 -13.40 81.60 7 4 228
1871 SI MM 15:00:00 NR -13.44 81.58 2165 2165 _____P____P___ -1 -13.35 81.71 99 -13.53 81.46 7 4 227
1871 SI MM 18:00:00 NR -13.57 81.44 2186 2186 _____P____P___ -1 -13.47 81.57 99 -13.67 81.31 7 4 226
1871 SI MM 21:00:00 NR -13.72 81.29 2197 2197 _____P____P___ -1 -13.61 81.42 99 -13.82 81.16 7 4 225
1871 SI MM 1871-01-26 00:00:00 NR -13.88 81.13 2218 2218 _____P____O___ -1 -13.76 81.26 99 -14.00 81.00 7 5 223
1871 SI MM 03:00:00 NR -14.06 80.96 2241 2240 _____P____P___ -1 -13.92 81.09 99 -14.20 80.83 7 5 222
1871 SI MM 06:00:00 NR -14.26 80.77 2263 2263 _____O____P___ -1 -14.10 80.90 99 9.90 -14.42 80.64 7 6 223
1871 SI MM 09:00:00 NR -14.48 80.56 2285 2285 _____P____P___ -1 -14.31 80.68 99 -14.66 80.43 7 6 223
1871 SI MM 12:00:00 NR -14.72 80.33 2308 2308 _____P____O___ -1 -14.54 80.45 99 -14.90 80.20 7 7 224
1871 SI MM 15:00:00 NR -14.96 80.08 2342 2342 _____P____P___ -1 -14.78 80.21 99 -15.15 79.95 7 7 225
1871 SI MM 18:00:00 NR -15.19 79.84 2365 2365 _____P____P___ -1 -15.03 79.96 99 -15.40 79.68 7 6 226
1871 SI MM 21:00:00 NR -15.40 79.60 2369 2342 _____P____P___ -1 -15.28 79.71 99 -15.65 79.39 7 6 226
1871 SI MM 1871-01-27 00:00:00 NR -15.60 79.39 2342 2316 _____P____O___ -1 -15.53 79.46 99 -15.90 79.10 7 5 225
1871 SI MM 03:00:00 NR -15.77 79.22 2316 2289 _____P________ -1 -15.77 79.22 99 7 5 223
1871 SI MM 06:00:00 NR -16.00 79.00 reunion 2289 2263 _____O________ -1 -16.00 79.00 99 9.90 7 6 223
1871 SI MM 09:00:00 NR -16.21 78.79 2263 2236 _____P________ -1 -16.21 78.79 99 7 6 223
1871 SI MM 12:00:00 NR -16.41 78.61 2236 2210 _____P________ -1 -16.41 78.61 99 5 222
1871 SI MM 15:00:00 NR -16.60 78.43 2210 2194 _____P________ -1 -16.60 78.43 99 5 222
1871 SI MM 18:00:00 NR -16.77 78.27 2194 2171 _____P________ -1 -16.77 78.27 99 5 221
1871 SI MM 21:00:00 NR -16.93 78.12 2171 2156 _____P________ -1 -16.93 78.12 99 4 221
1871 SI MM 1871-01-28 00:00:00 NR -17.09 77.98 2156 2132 _____P________ -1 -17.09 77.98 99 4 221
1871 SI MM 03:00:00 NR -17.25 77.84 2132 2117 _____P________ -1 -17.25 77.84 99 4 221
1871 SI MM 06:00:00 NR -17.40 77.70 reunion 2117 _____O________ -1 -17.40 77.70 99 9.90 4 221